Catàleg de serveis del Meteocat
Campanya meteocatpedra

Dades de l'estació automàtica Port de Barcelona - Bocana Sud

?
?
Resum diari 22:00 TU
Dades diàries de l'estació meteorològica
Ratxa màxima del vent (10 m) 30.2 km/h - 203º 18:14 TU

El tram horari està expressat en Temps Universal (TU). Cal sumar una hora en horari d'hivern i dues en horari d'estiu per passar a l'hora oficial.

Port de Barcelona - Bocana Sud

Metadades estació meteorol´gica
Municipi El Prat de Llobregat
Comarca Baix Llobregat
Altitud 3 m
Data alta 08.04.2015
Estat actual Operativa
Dades de període
Període
TU
VVM (10 m)
km/h
DVM (10 m)
graus
VVX (10 m)
km/h
00:00 - 00:30 18.4 261 27.0
00:30 - 01:00 16.6 261 20.5
01:00 - 01:30 17.6 281 22.7
01:30 - 02:00 14.8 276 22.3
02:00 - 02:30 8.6 271 16.9
02:30 - 03:00 15.1 273 18.7
03:00 - 03:30 13.0 284 16.6
03:30 - 04:00 13.7 283 18.4
04:00 - 04:30 14.0 272 18.0
04:30 - 05:00 14.4 264 18.7
05:00 - 05:30 11.9 271 15.5
05:30 - 06:00 8.6 296 13.0
06:00 - 06:30 6.8 290 9.7
06:30 - 07:00 7.9 278 10.4
07:00 - 07:30 11.2 277 14.8
07:30 - 08:00 13.0 269 17.3
08:00 - 08:30 13.0 275 16.2
08:30 - 09:00 11.5 280 14.4
09:00 - 09:30 13.0 276 19.1
09:30 - 10:00 12.6 270 17.6
10:00 - 10:30 19.1 274 25.6
10:30 - 11:00 15.8 272 24.5
11:00 - 11:30 13.0 279 20.5
11:30 - 12:00 10.1 278 18.0
12:00 - 12:30 13.7 276 18.7
12:30 - 13:00 16.6 273 21.2
13:00 - 13:30 13.7 267 20.9
13:30 - 14:00 13.0 230 20.2
14:00 - 14:30 15.1 206 18.7
14:30 - 15:00 15.8 206 20.9
15:00 - 15:30 19.4 208 24.1
15:30 - 16:00 21.2 206 26.3
16:00 - 16:30 22.3 203 27.7
16:30 - 17:00 24.1 200 29.9
17:00 - 17:30 23.0 199 27.4
17:30 - 18:00 21.2 199 25.2
18:00 - 18:30 20.9 209 30.2
18:30 - 19:00 14.0 240 22.0
19:00 - 19:30 13.0 232 19.4
19:30 - 20:00 13.3 210 20.5
20:00 - 20:30 9.7 275 13.3
20:30 - 21:00 6.1 282 11.9
21:00 - 21:30 6.1 286 8.3
21:30 - 22:00 6.1 257 9.4
22:00 - 22:30 13.0 267 20.2
22:30 - 23:00 (s/d) (s/d) (s/d)

Les dades en taronja només han passat un control de qualitat automàtic. Resta pendent la seva validació definitiva.